Cotuit, MA (02635)

7:56 PM EDT on April 25, 2015 (GMT -0400)
HADS | | Change Station
CLOSE
Current Station
Personal Weather Station
Location: Cotuit, MA
Elevation: 0 ft
Nearby Weather Stations

Elev 0 ft 41.60 °N, 70.47 °W | Updated 41 minutes ago

Overcast
Overcast
45 °F
Feels Like 41 °F
N
7
Wind Variable Wind from SW
Gusts 0.0 mph

Today
High -- | Low -- °F
--% Chance of Precip.
Yesterday
High -- | Low -- °F
Precip. -- in
5:47 AM 7:33 PM
Waxing Crescent, 50% visible
Pressure 29.70 in
Visibility 10.0 miles
Clouds Overcast 8000 ft
Windchill 41 °F
Dew Point 33 °F
Humidity 61%
Rainfall in
Snow Depth Not available.
UV 0 out of 12
Pollen 10.90 out of 12
Air Quality Not available.
Flu Activity Widespread
METAR KFMH 252335Z AUTO 20004KT 10SM OVC080 07/02 A2970 RMK AO2

More Conditions Fewer Conditions

Pressure 29.70 in
Visibility 10.0 miles
Clouds Overcast 8000 ft
Windchill 41 °F
Dew Point 33 °F
Humidity 61%
Rainfall in
Snow Depth Not available.
UV 0 out of 12
Pollen 10.90 out of 12
Air Quality Not available.
Flu Activity Widespread
METAR KFMH 252335Z AUTO 20004KT 10SM OVC080 07/02 A2970 RMK AO2

More Conditions Fewer Conditions

10-Day Weather Forecast

Almanac

Astronomy

Apr. 25, 2015 Rise Set
Actual Time
Civil Twilight
Nautical Twilight
Astronomical Twilight
Moon
Length of Visible Light
Length of Day
Tomorrow will be .
, % of the Moon is Illuminated

Today's Extremes

State Highs State Lows

Community

WunderPhotos

Upload Photos

1,816,850 photos uploaded!

WunderBlogs® & News

Nearby

Air Quality

  Air Quality AQ Index Pollutant
Not available.

Snow Depth

Station Depth Elevation

Earthquake Activity

City Distance Mag. Time & Date
Minimum magnitude displayed is 2.5.

Coastal Water Temperatures

Place Temperature

Stations

Nearby Weather Stations

Station Location Temp. Windchill Dew Point Humidity Wind Precip. Elev Updated Type